createdAt,value
2017-11-05T00:02:15.634Z,225.30
2017-11-05T00:04:44.651Z,236.37
2017-11-05T00:07:12.890Z,234.17
2017-11-05T00:09:41.163Z,217.57
2017-11-05T00:12:09.394Z,261.73
2017-11-05T00:14:37.640Z,206.00
2017-11-05T00:17:06.650Z,214.07
2017-11-05T00:19:34.906Z,234.87
2017-11-05T00:22:03.913Z,265.23
2017-11-05T00:24:32.165Z,307.60
2017-11-05T00:27:01.177Z,256.13
2017-11-05T00:29:29.433Z,242.07
2017-11-05T00:31:58.445Z,205.30
2017-11-05T00:34:26.698Z,225.63
2017-11-05T00:36:55.005Z,220.30
2017-11-05T00:39:23.268Z,208.50
2017-11-05T00:41:52.283Z,225.73
2017-11-05T00:44:20.542Z,214.40
2017-11-05T00:46:49.545Z,242.53
2017-11-05T00:49:17.804Z,228.80
2017-11-05T00:51:46.822Z,234.70
2017-11-05T00:54:15.086Z,231.20
2017-11-05T00:56:43.341Z,207.03
2017-11-05T00:59:12.353Z,175.77
2017-11-05T01:01:40.599Z,208.90
2017-11-05T01:04:08.853Z,276.93
2017-11-05T01:06:37.101Z,258.43
2017-11-05T01:09:05.354Z,290.17
2017-11-05T01:11:33.608Z,275.73
2017-11-05T01:14:01.857Z,277.70
2017-11-05T01:16:30.099Z,285.07
2017-11-05T01:18:58.349Z,251.53
2017-11-05T01:21:26.610Z,240.90
2017-11-05T01:23:54.853Z,233.53
2017-11-05T01:26:23.093Z,265.13
2017-11-05T01:28:51.345Z,272.23
2017-11-05T01:31:20.363Z,281.47
2017-11-05T01:33:48.617Z,246.77
2017-11-05T01:36:17.621Z,237.07
2017-11-05T01:38:45.866Z,206.60
2017-11-05T01:41:14.113Z,186.57
2017-11-05T01:43:42.371Z,221.53
2017-11-05T01:46:10.608Z,256.90
2017-11-05T01:48:38.860Z,201.50
2017-11-05T01:51:07.130Z,189.80
2017-11-05T01:53:35.870Z,230.73
2017-11-05T01:56:04.126Z,285.03
2017-11-05T01:58:32.377Z,255.23
2017-11-05T02:01:00.633Z,277.33
2017-11-05T02:03:28.883Z,288.33
2017-11-05T02:05:57.141Z,246.30
2017-11-05T02:08:25.390Z,229.23
2017-11-05T02:10:54.396Z,235.70
2017-11-05T02:13:22.645Z,187.70
2017-11-05T02:15:50.898Z,206.17
2017-11-05T02:18:19.145Z,164.07
2017-11-05T02:20:47.394Z,197.93
2017-11-05T02:23:16.402Z,197.50
2017-11-05T02:25:44.651Z,153.13
2017-11-05T02:28:13.665Z,179.90
2017-11-05T02:30:41.915Z,186.50
2017-11-05T02:33:10.926Z,180.33
2017-11-05T02:35:39.179Z,203.90
2017-11-05T02:38:07.425Z,224.20
2017-11-05T02:40:35.687Z,203.37
2017-11-05T02:43:03.938Z,212.27
2017-11-05T02:45:32.186Z,202.00
2017-11-05T02:48:01.200Z,181.77
2017-11-05T02:50:29.449Z,177.93
2017-11-05T02:52:58.460Z,181.37
2017-11-05T02:55:26.710Z,191.33
2017-11-05T02:57:54.973Z,205.10
2017-11-05T03:00:23.227Z,200.30
2017-11-05T03:02:51.470Z,237.57
2017-11-05T03:05:19.721Z,247.57
2017-11-05T03:07:48.733Z,239.23
2017-11-05T03:10:16.991Z,232.93
2017-11-05T03:12:45.234Z,168.87
2017-11-05T03:15:13.495Z,197.53
2017-11-05T03:17:41.734Z,189.37
2017-11-05T03:20:09.990Z,211.70
2017-11-05T03:22:39.001Z,216.40
2017-11-05T03:25:07.253Z,198.80
2017-11-05T03:27:35.502Z,190.87
2017-11-05T03:30:03.759Z,182.23
2017-11-05T03:32:32.003Z,145.67
2017-11-05T03:35:00.249Z,130.40
2017-11-05T03:37:28.490Z,130.77
2017-11-05T03:39:57.510Z,118.73
2017-11-05T03:42:25.830Z,116.47
2017-11-05T03:44:54.082Z,104.20
2017-11-05T03:47:23.086Z,92.63
2017-11-05T03:49:52.105Z,78.80
2017-11-05T03:52:20.343Z,65.87
2017-11-05T03:54:49.358Z,63.70
2017-11-05T03:57:17.605Z,64.67
2017-11-05T03:59:46.623Z,75.70
2017-11-05T04:02:14.865Z,71.90
2017-11-05T04:04:43.118Z,76.93
2017-11-05T04:07:11.358Z,84.43
2017-11-05T04:09:39.606Z,81.27
2017-11-05T04:12:08.609Z,76.20
2017-11-05T04:14:37.626Z,75.80
2017-11-05T04:17:05.869Z,71.07
2017-11-05T04:19:34.881Z,80.70
2017-11-05T04:22:03.122Z,57.93
2017-11-05T04:24:31.374Z,68.80
2017-11-05T04:26:59.620Z,85.10
2017-11-05T04:29:27.883Z,85.33
2017-11-05T04:31:56.132Z,92.20
2017-11-05T04:34:24.374Z,74.77
2017-11-05T04:36:52.619Z,66.90
2017-11-05T04:39:20.863Z,73.37
2017-11-05T04:41:49.878Z,73.80
2017-11-05T04:44:18.117Z,70.17
2017-11-05T04:46:46.365Z,79.80
2017-11-05T04:49:14.610Z,69.90
2017-11-05T04:51:42.858Z,83.93
2017-11-05T04:54:11.867Z,81.13
2017-11-05T04:56:40.114Z,74.30
2017-11-05T04:59:08.358Z,76.60
2017-11-05T05:01:37.373Z,61.20
2017-11-05T05:04:05.632Z,73.53
2017-11-05T05:06:33.861Z,78.57
2017-11-05T05:09:02.102Z,75.13
2017-11-05T05:11:30.355Z,83.27
2017-11-05T05:13:58.591Z,87.13
2017-11-05T05:16:26.838Z,90.57
2017-11-05T05:18:55.847Z,87.13
2017-11-05T05:21:24.854Z,85.37
2017-11-05T05:23:53.093Z,101.10
2017-11-05T05:26:21.346Z,111.33
2017-11-05T05:28:49.598Z,105.17
2017-11-05T05:31:17.845Z,122.23
2017-11-05T05:33:46.093Z,112.17
2017-11-05T05:36:14.342Z,105.47
2017-11-05T05:38:42.588Z,107.00
2017-11-05T05:41:10.826Z,96.37
2017-11-05T05:43:39.842Z,78.53
2017-11-05T05:46:08.853Z,80.80
2017-11-05T05:48:37.094Z,90.57
2017-11-05T05:51:06.111Z,83.83
2017-11-05T05:53:34.354Z,79.07
2017-11-05T05:56:02.594Z,76.47
2017-11-05T05:58:30.833Z,80.93
2017-11-05T06:00:59.077Z,81.17
2017-11-05T06:03:27.317Z,84.53
2017-11-05T06:05:55.570Z,93.20
2017-11-05T06:08:23.815Z,80.73
2017-11-05T06:10:52.833Z,71.93
2017-11-05T06:13:21.074Z,81.17
2017-11-05T06:15:50.085Z,77.00
2017-11-05T06:18:18.330Z,77.57
2017-11-05T06:20:46.590Z,81.70
2017-11-05T06:23:14.830Z,84.67
2017-11-05T06:25:43.076Z,98.13
2017-11-05T06:28:12.086Z,79.87
2017-11-05T06:30:40.332Z,85.67
2017-11-05T06:33:09.347Z,80.60
2017-11-05T06:35:38.355Z,73.37
2017-11-05T06:38:06.599Z,80.23
2017-11-05T06:40:35.608Z,89.43
2017-11-05T06:43:03.854Z,72.03
2017-11-05T06:45:32.101Z,75.77
2017-11-05T06:48:00.359Z,81.77
2017-11-05T06:50:28.606Z,92.57
2017-11-05T06:52:56.850Z,75.40
2017-11-05T06:55:25.099Z,88.13
2017-11-05T06:57:53.344Z,83.27
2017-11-05T07:00:21.586Z,86.67
2017-11-05T07:02:49.833Z,84.77
2017-11-05T07:05:18.086Z,80.93
2017-11-05T07:07:46.326Z,80.47
2017-11-05T07:10:15.338Z,99.23
2017-11-05T07:12:43.578Z,76.43
2017-11-05T07:15:11.831Z,84.57
2017-11-05T07:17:40.066Z,76.43
2017-11-05T07:20:08.309Z,71.13
2017-11-05T07:22:36.554Z,85.70
2017-11-05T07:25:04.799Z,62.87
2017-11-05T07:27:33.045Z,62.70
2017-11-05T07:30:02.048Z,55.30
2017-11-05T07:32:30.297Z,54.17
2017-11-05T07:34:58.544Z,56.77
2017-11-05T07:37:26.792Z,55.30
2017-11-05T07:39:55.029Z,48.70
2017-11-05T07:42:24.051Z,32.93
2017-11-05T07:44:52.302Z,34.70
2017-11-05T07:47:21.313Z,42.70
2017-11-05T07:49:49.553Z,28.40
2017-11-05T07:52:17.809Z,25.93
2017-11-05T07:54:46.825Z,20.60
2017-11-05T07:57:15.077Z,23.33
2017-11-05T07:59:43.336Z,22.30
2017-11-05T08:02:11.586Z,15.00
2017-11-05T08:04:39.837Z,29.80
2017-11-05T08:07:08.858Z,14.47
2017-11-05T08:09:37.109Z,17.60
2017-11-05T08:12:06.136Z,17.47
2017-11-05T08:14:34.385Z,12.53
2017-11-05T08:17:03.415Z,19.00
2017-11-05T08:19:31.661Z,13.77
2017-11-05T08:21:59.937Z,17.63
2017-11-05T08:24:28.940Z,16.00
2017-11-05T08:26:57.198Z,15.00
2017-11-05T08:29:26.218Z,13.83
2017-11-05T08:31:54.476Z,14.10
2017-11-05T08:34:22.733Z,15.43
2017-11-05T08:36:51.763Z,14.03
2017-11-05T08:39:20.020Z,16.73
2017-11-05T08:41:49.034Z,11.43
2017-11-05T08:44:17.281Z,13.93
2017-11-05T08:46:45.559Z,15.90
2017-11-05T08:49:14.572Z,13.40
2017-11-05T08:51:42.825Z,16.77
2017-11-05T08:54:11.837Z,11.80
2017-11-05T08:56:40.097Z,16.27
2017-11-05T08:59:08.353Z,14.50
2017-11-05T09:01:36.613Z,14.97
2017-11-05T09:04:04.865Z,18.67
2017-11-05T09:06:33.129Z,15.57
2017-11-05T09:09:01.390Z,17.43
2017-11-05T09:11:29.649Z,17.20
2017-11-05T09:13:58.667Z,11.90
2017-11-05T09:16:26.920Z,11.00
2017-11-05T09:18:55.181Z,13.17
2017-11-05T09:21:24.193Z,10.80
2017-11-05T09:23:52.449Z,10.63
2017-11-05T09:26:21.474Z,13.77
2017-11-05T09:28:49.730Z,15.10
2017-11-05T09:31:18.755Z,10.20
2017-11-05T09:33:47.006Z,11.83
2017-11-05T09:36:15.261Z,11.57
2017-11-05T09:38:44.275Z,7.73
2017-11-05T09:41:12.523Z,7.93
2017-11-05T09:43:41.538Z,9.57
2017-11-05T09:46:09.797Z,10.60
2017-11-05T09:48:38.813Z,8.63
2017-11-05T09:51:07.073Z,12.67
2017-11-05T09:53:36.086Z,8.53
2017-11-05T09:56:04.341Z,7.03
2017-11-05T09:58:33.348Z,7.53
2017-11-05T10:01:01.610Z,12.80
2017-11-05T10:03:30.626Z,10.63
2017-11-05T10:05:58.887Z,9.13
2017-11-05T10:08:27.139Z,8.33
2017-11-05T10:10:55.381Z,7.10
2017-11-05T10:13:23.629Z,10.33
2017-11-05T10:15:51.878Z,9.77
2017-11-05T10:18:20.893Z,6.93
2017-11-05T10:20:49.137Z,7.37
2017-11-05T10:23:18.155Z,8.43
2017-11-05T10:25:46.394Z,8.70
2017-11-05T10:28:16.160Z,8.60
2017-11-05T10:30:44.401Z,7.10
2017-11-05T10:33:13.416Z,8.77
2017-11-05T10:35:41.666Z,10.70
2017-11-05T10:38:10.685Z,6.70
2017-11-05T10:40:38.933Z,8.30
2017-11-05T10:43:07.971Z,7.33
2017-11-05T10:45:36.244Z,8.77
2017-11-05T10:48:04.493Z,8.40
2017-11-05T10:50:32.749Z,8.53
2017-11-05T10:53:01.771Z,7.83
2017-11-05T10:55:30.069Z,11.17
2017-11-05T10:57:58.313Z,9.30
2017-11-05T11:00:27.326Z,9.43
2017-11-05T11:02:55.587Z,11.30
2017-11-05T11:05:23.835Z,9.47
2017-11-05T11:07:52.090Z,13.37
2017-11-05T11:10:20.339Z,9.57
2017-11-05T11:12:48.597Z,14.70
2017-11-05T11:15:16.842Z,6.60
2017-11-05T11:17:45.855Z,9.00
2017-11-05T11:20:15.581Z,5.50
2017-11-05T11:22:43.899Z,2.03
2017-11-05T11:25:12.207Z,2.40
2017-11-05T11:27:41.302Z,2.50
2017-11-05T11:30:10.803Z,1.57
2017-11-05T11:32:39.156Z,2.47
2017-11-05T11:35:13.651Z,1.73
2017-11-05T11:37:41.972Z,3.50
2017-11-05T11:40:11.059Z,3.23
2017-11-05T11:42:39.410Z,2.17
2017-11-05T11:45:07.729Z,2.97
2017-11-05T11:47:36.061Z,2.30
2017-11-05T11:50:04.399Z,3.30
2017-11-05T11:52:32.751Z,2.03
2017-11-05T11:55:01.083Z,5.03
2017-11-05T11:57:29.400Z,5.50
2017-11-05T11:59:57.729Z,1.80
2017-11-05T12:02:26.040Z,2.80
2017-11-05T12:04:54.396Z,2.60
2017-11-05T12:07:22.698Z,1.80
2017-11-05T12:09:51.021Z,1.60
2017-11-05T12:12:19.367Z,1.80
2017-11-05T12:14:47.741Z,1.53
2017-11-05T12:17:16.761Z,1.47
2017-11-05T12:19:45.083Z,2.10
2017-11-05T12:22:13.419Z,1.70
2017-11-05T12:24:41.711Z,1.30
2017-11-05T12:27:09.980Z,1.60
2017-11-05T12:29:38.394Z,1.93
2017-11-05T12:32:06.680Z,1.40
2017-11-05T12:34:34.942Z,1.80
2017-11-05T12:37:03.212Z,2.13
2017-11-05T12:39:31.476Z,1.83
2017-11-05T12:41:59.772Z,1.67
2017-11-05T12:44:28.170Z,2.15
2017-11-05T12:46:57.805Z,1.83
2017-11-05T12:49:34.940Z,1.70
2017-11-05T12:52:05.713Z,1.83
2017-11-05T12:54:34.900Z,2.50
2017-11-05T12:57:03.515Z,2.17
2017-11-05T12:59:31.791Z,2.33
2017-11-05T13:15:24.622Z,3.30
2017-11-05T13:17:52.866Z,2.33
2017-11-05T13:20:21.105Z,1.90
2017-11-05T13:22:49.350Z,2.27
2017-11-05T13:25:17.638Z,1.80
2017-11-05T13:27:45.869Z,1.93
2017-11-05T13:30:14.107Z,1.70
2017-11-05T13:32:42.357Z,2.40
2017-11-05T13:35:10.600Z,2.33
2017-11-05T13:37:39.689Z,2.10
2017-11-05T13:40:08.035Z,3.67
2017-11-05T13:42:36.337Z,3.20
2017-11-05T13:45:04.605Z,4.80
2017-11-05T13:47:33.062Z,3.07
2017-11-05T13:50:01.435Z,5.43
2017-11-05T13:52:29.766Z,4.23
2017-11-05T13:54:58.869Z,3.77
2017-11-05T13:57:27.184Z,4.00
2017-11-05T13:59:55.554Z,3.37
2017-11-05T14:02:23.880Z,3.00
2017-11-05T14:04:52.931Z,3.20
2017-11-05T14:07:21.205Z,3.10
2017-11-05T14:09:49.460Z,3.30
2017-11-05T14:12:17.749Z,3.27
2017-11-05T14:14:47.122Z,2.93
2017-11-05T14:17:15.443Z,3.40
2017-11-05T14:19:43.828Z,2.43
2017-11-05T14:22:25.314Z,3.47
2017-11-05T14:49:01.066Z,3.00
2017-11-05T14:51:30.171Z,1.37
2017-11-05T14:53:58.547Z,2.80
2017-11-05T14:56:27.655Z,2.20
2017-11-05T14:58:55.999Z,2.13
2017-11-05T15:01:25.043Z,2.40
2017-11-05T15:03:53.318Z,2.30
2017-11-05T15:06:21.621Z,3.50
2017-11-05T15:08:49.957Z,2.73
2017-11-05T15:11:21.432Z,3.10
2017-11-05T15:13:49.771Z,3.10
2017-11-05T15:16:18.935Z,3.00
2017-11-05T15:18:48.776Z,3.13
2017-11-05T15:21:19.064Z,2.40
2017-11-05T15:23:47.391Z,3.00
2017-11-05T15:40:16.755Z,5.60
2017-11-05T15:42:45.085Z,2.20
2017-11-05T16:00:52.048Z,2.53
2017-11-05T16:03:21.132Z,1.80
2017-11-05T16:05:50.214Z,4.30
2017-11-05T16:08:18.482Z,2.83
2017-11-05T16:10:46.718Z,2.83
2017-11-05T16:13:15.192Z,2.60
2017-11-05T16:15:43.670Z,2.83
2017-11-05T16:18:11.967Z,3.63
2017-11-05T16:20:40.326Z,2.93
2017-11-05T16:23:08.634Z,3.53
2017-11-05T16:25:36.938Z,4.40
2017-11-05T16:28:05.215Z,3.00
2017-11-05T16:30:34.248Z,3.23
2017-11-05T16:33:02.523Z,4.00
2017-11-05T16:35:30.787Z,3.90
2017-11-05T16:37:59.059Z,4.50
2017-11-05T16:40:28.139Z,7.73
2017-11-05T16:42:56.400Z,4.10
2017-11-05T16:45:24.681Z,4.03
2017-11-05T16:47:52.931Z,4.50
2017-11-05T16:50:21.206Z,4.37
2017-11-05T16:52:50.231Z,5.30
2017-11-05T16:55:19.371Z,6.07
2017-11-05T16:57:47.681Z,4.10
2017-11-05T17:00:15.947Z,6.33
2017-11-05T17:02:44.224Z,3.27
2017-11-05T17:05:12.496Z,4.43
2017-11-05T17:07:40.758Z,4.40
2017-11-05T17:10:09.028Z,5.40
2017-11-05T17:12:37.339Z,5.87
2017-11-05T17:15:05.666Z,5.47
2017-11-05T17:17:33.913Z,5.13
2017-11-05T17:20:02.951Z,5.37
2017-11-05T17:22:31.259Z,5.50
2017-11-05T17:24:59.523Z,4.73
2017-11-05T17:27:27.773Z,4.30
2017-11-05T17:29:56.045Z,4.80
2017-11-05T17:32:24.355Z,5.17
2017-11-05T17:34:52.624Z,4.90
2017-11-05T17:37:20.879Z,7.63
2017-11-05T17:39:49.146Z,7.10
2017-11-05T17:42:17.399Z,7.33
2017-11-05T17:44:46.471Z,6.57
2017-11-05T17:47:14.739Z,9.07
2017-11-05T17:49:43.012Z,8.63
2017-11-05T17:52:11.346Z,8.77
2017-11-05T17:54:39.632Z,8.03
2017-11-05T17:57:07.920Z,13.13
2017-11-05T17:59:36.257Z,13.47
2017-11-05T18:02:05.266Z,14.27
2017-11-05T18:04:33.592Z,11.87
2017-11-05T18:07:01.852Z,14.33
2017-11-05T18:09:30.187Z,11.27
2017-11-05T18:11:58.448Z,12.27
2017-11-05T18:14:26.778Z,10.67
2017-11-05T18:16:55.847Z,10.30
2017-11-05T18:19:24.083Z,12.73
2017-11-05T18:21:52.330Z,12.70
2017-11-05T18:24:21.342Z,13.30
2017-11-05T18:26:49.581Z,14.57
2017-11-05T18:29:17.830Z,14.27
2017-11-05T18:31:46.120Z,17.73
2017-11-05T18:34:14.406Z,18.33
2017-11-05T18:36:42.650Z,15.43
2017-11-05T18:39:11.713Z,17.60
2017-11-05T18:41:39.942Z,19.97
2017-11-05T18:44:08.194Z,18.30
2017-11-05T18:46:37.198Z,23.77
2017-11-05T18:49:05.456Z,18.60
2017-11-05T18:51:34.495Z,19.53
2017-11-05T18:54:02.786Z,24.80
2017-11-05T18:56:31.018Z,19.03
2017-11-05T18:58:59.399Z,21.93
2017-11-05T19:01:27.853Z,29.40
2017-11-05T19:03:59.571Z,21.57
2017-11-05T19:06:28.622Z,23.00
2017-11-05T19:08:57.073Z,21.23
2017-11-05T19:11:25.433Z,17.70
2017-11-05T19:13:53.774Z,19.63
2017-11-05T19:16:23.371Z,18.30
2017-11-05T19:18:51.679Z,18.07
2017-11-05T19:21:20.843Z,24.47
2017-11-05T19:23:49.294Z,27.47
2017-11-05T19:26:17.647Z,18.00
2017-11-05T19:28:46.016Z,20.90
2017-11-05T19:31:14.387Z,21.17
2017-11-05T19:33:42.721Z,18.53
2017-11-05T19:36:11.077Z,23.90
2017-11-05T19:38:39.395Z,22.90
2017-11-05T19:41:07.786Z,19.50
2017-11-05T19:43:36.240Z,23.20
2017-11-05T19:46:05.395Z,25.17
2017-11-05T19:48:33.780Z,24.43
2017-11-05T19:51:02.203Z,14.20
2017-11-05T19:53:30.591Z,22.23
2017-11-05T19:55:58.920Z,22.13
2017-11-05T19:58:27.901Z,22.70
2017-11-05T20:00:56.156Z,18.90
2017-11-05T20:03:25.171Z,23.10
2017-11-05T20:05:53.470Z,16.20
2017-11-05T20:08:21.758Z,17.93
2017-11-05T20:10:50.082Z,16.97
2017-11-05T20:13:18.326Z,16.77
2017-11-05T20:15:46.563Z,15.50
2017-11-05T20:18:14.814Z,18.03
2017-11-05T20:20:43.826Z,19.73
2017-11-05T20:23:12.130Z,19.80
2017-11-05T20:25:40.459Z,19.50
2017-11-05T20:28:09.528Z,18.30
2017-11-05T20:30:38.568Z,17.87
2017-11-05T20:33:06.921Z,16.83
2017-11-05T20:35:35.996Z,28.10
2017-11-05T20:38:05.082Z,15.87
2017-11-05T20:40:33.381Z,14.63
2017-11-05T20:43:01.621Z,19.13
2017-11-05T20:45:29.896Z,18.23
2017-11-05T20:47:58.334Z,15.73
2017-11-05T20:50:27.333Z,15.73
2017-11-05T20:52:55.641Z,14.67
2017-11-05T20:55:23.938Z,12.23
2017-11-05T20:57:52.233Z,15.93
2017-11-05T21:00:20.513Z,13.40
2017-11-05T21:02:48.825Z,15.33
2017-11-05T21:05:17.109Z,14.60
2017-11-05T21:07:45.355Z,17.77
2017-11-05T21:10:14.518Z,16.20
2017-11-05T21:12:42.877Z,10.30
2017-11-05T21:15:11.162Z,13.60
2017-11-05T21:17:39.458Z,14.77
2017-11-05T21:20:07.679Z,11.20
2017-11-05T21:22:36.052Z,11.23
2017-11-05T21:25:04.368Z,12.57
2017-11-05T21:27:32.710Z,10.40
2017-11-05T21:30:01.067Z,13.83
2017-11-05T21:32:30.182Z,11.20
2017-11-05T21:34:58.402Z,9.13
2017-11-05T21:40:27.821Z,12.60
2017-11-05T21:42:57.330Z,12.53
2017-11-05T21:45:25.626Z,10.63
2017-11-05T21:47:53.894Z,12.70
2017-11-05T21:50:22.930Z,7.23
2017-11-05T21:52:51.173Z,8.03
2017-11-05T21:55:20.178Z,11.20
2017-11-05T21:57:49.249Z,10.50
2017-11-05T22:00:17.517Z,13.23
2017-11-05T22:02:45.800Z,7.60
2017-11-05T22:05:14.127Z,8.20
2017-11-05T22:07:42.429Z,7.80
2017-11-05T22:10:10.855Z,9.80
2017-11-05T22:12:39.849Z,7.90
2017-11-05T22:15:08.919Z,7.67
2017-11-05T22:17:37.167Z,8.37
2017-11-05T22:20:05.401Z,8.30
2017-11-05T22:22:33.704Z,11.53
2017-11-05T22:25:01.946Z,16.90
2017-11-05T22:27:30.955Z,7.83
2017-11-05T22:29:59.205Z,11.90
2017-11-05T22:32:27.441Z,16.80
2017-11-05T22:34:55.681Z,10.77
2017-11-05T22:37:23.951Z,7.90
2017-11-05T22:39:52.188Z,8.73
2017-11-05T22:42:20.418Z,11.37
2017-11-05T22:44:48.666Z,11.37
2017-11-05T22:47:17.669Z,11.53
2017-11-05T22:49:46.146Z,9.10
2017-11-05T22:52:14.416Z,11.87
2017-11-05T22:54:43.418Z,10.13
2017-11-05T22:57:11.657Z,10.57
2017-11-05T22:59:39.907Z,11.57
2017-11-05T23:02:08.145Z,8.60
2017-11-05T23:04:36.385Z,9.30
2017-11-05T23:07:04.622Z,8.43
2017-11-05T23:09:32.867Z,9.87
2017-11-05T23:12:01.862Z,10.73
2017-11-05T23:14:30.102Z,9.67
2017-11-05T23:16:58.332Z,9.50
2017-11-05T23:19:26.583Z,12.67
2017-11-05T23:21:54.817Z,12.30
2017-11-05T23:24:23.060Z,15.03
2017-11-05T23:26:51.300Z,9.27
2017-11-05T23:29:20.315Z,10.50
2017-11-05T23:31:48.554Z,10.13
2017-11-05T23:34:16.799Z,14.23
2017-11-05T23:36:45.034Z,9.07
2017-11-05T23:39:13.283Z,12.77
2017-11-05T23:41:42.282Z,12.30
2017-11-05T23:44:13.142Z,14.20
2017-11-05T23:46:41.390Z,13.80
2017-11-05T23:49:10.435Z,15.17
2017-11-05T23:51:38.681Z,11.73
2017-11-05T23:54:06.927Z,12.60
2017-11-05T23:56:35.169Z,17.40
2017-11-05T23:59:04.186Z,13.90
